sensor_id;sensor_type;location;lat;lon;timestamp;P1;durP1;ratioP1;P2;durP2;ratioP2
31438;SDS011;18062;48.872;9.220;2023-04-15T00:01:22;0.50;;;0.50;;
31438;SDS011;18062;48.872;9.220;2023-04-15T00:03:49;0.80;;;0.70;;
31438;SDS011;18062;48.872;9.220;2023-04-15T00:06:16;0.70;;;0.70;;
31438;SDS011;18062;48.872;9.220;2023-04-15T00:08:43;1.37;;;1.00;;
31438;SDS011;18062;48.872;9.220;2023-04-15T00:11:09;5.80;;;1.07;;
31438;SDS011;18062;48.872;9.220;2023-04-15T00:13:36;1.03;;;0.93;;
31438;SDS011;18062;48.872;9.220;2023-04-15T00:16:03;0.63;;;0.63;;
31438;SDS011;18062;48.872;9.220;2023-04-15T00:18:30;0.50;;;0.50;;
31438;SDS011;18062;48.872;9.220;2023-04-15T00:20:56;0.70;;;0.60;;
31438;SDS011;18062;48.872;9.220;2023-04-15T00:23:23;1.70;;;1.00;;
31438;SDS011;18062;48.872;9.220;2023-04-15T00:25:49;1.00;;;0.77;;
31438;SDS011;18062;48.872;9.220;2023-04-15T00:28:16;1.27;;;1.13;;
31438;SDS011;18062;48.872;9.220;2023-04-15T00:30:42;1.60;;;0.90;;
31438;SDS011;18062;48.872;9.220;2023-04-15T00:33:08;0.83;;;0.83;;
31438;SDS011;18062;48.872;9.220;2023-04-15T00:35:34;0.50;;;0.50;;
31438;SDS011;18062;48.872;9.220;2023-04-15T00:38:01;1.00;;;0.90;;
31438;SDS011;18062;48.872;9.220;2023-04-15T00:40:27;0.80;;;0.80;;
31438;SDS011;18062;48.872;9.220;2023-04-15T00:42:53;0.63;;;0.63;;
31438;SDS011;18062;48.872;9.220;2023-04-15T00:45:19;0.93;;;0.77;;
31438;SDS011;18062;48.872;9.220;2023-04-15T00:47:45;4.23;;;0.73;;
31438;SDS011;18062;48.872;9.220;2023-04-15T00:50:11;0.90;;;0.90;;
31438;SDS011;18062;48.872;9.220;2023-04-15T00:52:38;0.53;;;0.53;;
31438;SDS011;18062;48.872;9.220;2023-04-15T00:55:04;1.70;;;1.00;;
31438;SDS011;18062;48.872;9.220;2023-04-15T00:57:31;1.37;;;1.17;;
31438;SDS011;18062;48.872;9.220;2023-04-15T00:59:57;0.73;;;0.73;;
31438;SDS011;18062;48.872;9.220;2023-04-15T01:02:23;1.33;;;1.17;;
31438;SDS011;18062;48.872;9.220;2023-04-15T01:04:49;1.80;;;1.00;;
31438;SDS011;18062;48.872;9.220;2023-04-15T01:07:16;0.73;;;0.70;;
31438;SDS011;18062;48.872;9.220;2023-04-15T01:09:42;2.07;;;0.50;;
31438;SDS011;18062;48.872;9.220;2023-04-15T01:12:11;0.43;;;0.43;;
31438;SDS011;18062;48.872;9.220;2023-04-15T01:14:39;0.73;;;0.73;;
31438;SDS011;18062;48.872;9.220;2023-04-15T01:17:05;4.53;;;1.83;;
31438;SDS011;18062;48.872;9.220;2023-04-15T01:19:31;0.47;;;0.47;;
31438;SDS011;18062;48.872;9.220;2023-04-15T01:21:57;2.87;;;1.30;;
31438;SDS011;18062;48.872;9.220;2023-04-15T01:24:24;1.00;;;0.73;;
31438;SDS011;18062;48.872;9.220;2023-04-15T01:26:51;1.30;;;1.00;;
31438;SDS011;18062;48.872;9.220;2023-04-15T01:29:17;0.63;;;0.63;;
31438;SDS011;18062;48.872;9.220;2023-04-15T01:31:52;0.80;;;0.80;;
31438;SDS011;18062;48.872;9.220;2023-04-15T01:34:19;0.53;;;0.53;;
31438;SDS011;18062;48.872;9.220;2023-04-15T01:36:46;5.13;;;1.10;;
31438;SDS011;18062;48.872;9.220;2023-04-15T01:39:12;0.93;;;0.93;;
31438;SDS011;18062;48.872;9.220;2023-04-15T01:41:38;0.70;;;0.70;;
31438;SDS011;18062;48.872;9.220;2023-04-15T01:44:07;1.03;;;0.70;;
31438;SDS011;18062;48.872;9.220;2023-04-15T01:46:33;0.67;;;0.67;;
31438;SDS011;18062;48.872;9.220;2023-04-15T01:48:59;0.50;;;0.50;;
31438;SDS011;18062;48.872;9.220;2023-04-15T01:51:26;0.50;;;0.50;;
31438;SDS011;18062;48.872;9.220;2023-04-15T01:53:52;0.63;;;0.60;;
31438;SDS011;18062;48.872;9.220;2023-04-15T01:56:21;0.43;;;0.43;;
31438;SDS011;18062;48.872;9.220;2023-04-15T01:58:48;0.93;;;0.87;;
31438;SDS011;18062;48.872;9.220;2023-04-15T02:01:14;0.60;;;0.53;;
31438;SDS011;18062;48.872;9.220;2023-04-15T02:03:43;0.43;;;0.43;;
31438;SDS011;18062;48.872;9.220;2023-04-15T02:06:09;0.63;;;0.63;;
31438;SDS011;18062;48.872;9.220;2023-04-15T02:08:36;1.13;;;1.07;;
31438;SDS011;18062;48.872;9.220;2023-04-15T02:11:02;1.23;;;1.17;;
31438;SDS011;18062;48.872;9.220;2023-04-15T02:13:28;0.63;;;0.63;;
31438;SDS011;18062;48.872;9.220;2023-04-15T02:15:54;2.07;;;0.80;;
31438;SDS011;18062;48.872;9.220;2023-04-15T02:18:20;0.53;;;0.53;;
31438;SDS011;18062;48.872;9.220;2023-04-15T02:20:46;0.93;;;0.90;;
31438;SDS011;18062;48.872;9.220;2023-04-15T02:23:12;1.00;;;0.93;;
31438;SDS011;18062;48.872;9.220;2023-04-15T02:25:38;0.50;;;0.50;;
31438;SDS011;18062;48.872;9.220;2023-04-15T02:28:05;1.17;;;0.73;;
31438;SDS011;18062;48.872;9.220;2023-04-15T02:30:31;1.20;;;1.10;;
31438;SDS011;18062;48.872;9.220;2023-04-15T02:32:57;2.27;;;0.53;;
31438;SDS011;18062;48.872;9.220;2023-04-15T02:35:23;0.87;;;0.70;;
31438;SDS011;18062;48.872;9.220;2023-04-15T02:37:50;0.23;;;0.23;;
31438;SDS011;18062;48.872;9.220;2023-04-15T02:40:16;0.27;;;0.27;;
31438;SDS011;18062;48.872;9.220;2023-04-15T02:42:42;0.67;;;0.67;;
31438;SDS011;18062;48.872;9.220;2023-04-15T02:45:09;0.60;;;0.60;;
31438;SDS011;18062;48.872;9.220;2023-04-15T02:47:36;0.90;;;0.90;;
31438;SDS011;18062;48.872;9.220;2023-04-15T02:50:06;0.47;;;0.47;;
31438;SDS011;18062;48.872;9.220;2023-04-15T02:52:33;4.83;;;1.03;;
31438;SDS011;18062;48.872;9.220;2023-04-15T02:54:59;1.00;;;0.83;;
31438;SDS011;18062;48.872;9.220;2023-04-15T02:57:26;1.80;;;1.00;;
31438;SDS011;18062;48.872;9.220;2023-04-15T02:59:53;3.37;;;1.57;;
31438;SDS011;18062;48.872;9.220;2023-04-15T03:02:19;0.60;;;0.60;;
31438;SDS011;18062;48.872;9.220;2023-04-15T03:04:45;0.60;;;0.60;;
31438;SDS011;18062;48.872;9.220;2023-04-15T03:07:11;0.60;;;0.47;;
31438;SDS011;18062;48.872;9.220;2023-04-15T03:09:37;0.50;;;0.50;;
31438;SDS011;18062;48.872;9.220;2023-04-15T03:12:05;1.07;;;0.70;;
31438;SDS011;18062;48.872;9.220;2023-04-15T03:14:31;0.53;;;0.53;;
31438;SDS011;18062;48.872;9.220;2023-04-15T03:16:57;1.23;;;1.13;;
31438;SDS011;18062;48.872;9.220;2023-04-15T03:19:23;0.80;;;0.80;;
31438;SDS011;18062;48.872;9.220;2023-04-15T03:21:49;1.23;;;1.13;;
31438;SDS011;18062;48.872;9.220;2023-04-15T03:24:16;0.60;;;0.60;;
31438;SDS011;18062;48.872;9.220;2023-04-15T03:26:42;0.70;;;0.70;;
31438;SDS011;18062;48.872;9.220;2023-04-15T03:29:08;1.70;;;1.03;;
31438;SDS011;18062;48.872;9.220;2023-04-15T03:31:34;0.83;;;0.83;;
31438;SDS011;18062;48.872;9.220;2023-04-15T03:34:00;1.00;;;1.00;;
31438;SDS011;18062;48.872;9.220;2023-04-15T03:36:27;1.07;;;1.07;;
31438;SDS011;18062;48.872;9.220;2023-04-15T03:38:56;0.70;;;0.70;;
31438;SDS011;18062;48.872;9.220;2023-04-15T03:41:22;1.10;;;0.90;;
31438;SDS011;18062;48.872;9.220;2023-04-15T03:43:48;0.83;;;0.83;;
31438;SDS011;18062;48.872;9.220;2023-04-15T03:46:16;0.90;;;0.87;;
31438;SDS011;18062;48.872;9.220;2023-04-15T03:48:42;0.83;;;0.67;;
31438;SDS011;18062;48.872;9.220;2023-04-15T03:51:08;0.57;;;0.57;;
31438;SDS011;18062;48.872;9.220;2023-04-15T03:53:34;0.70;;;0.70;;
31438;SDS011;18062;48.872;9.220;2023-04-15T03:56:00;0.90;;;0.90;;
31438;SDS011;18062;48.872;9.220;2023-04-15T03:58:26;0.87;;;0.83;;
31438;SDS011;18062;48.872;9.220;2023-04-15T04:00:52;0.83;;;0.83;;
31438;SDS011;18062;48.872;9.220;2023-04-15T04:03:19;0.50;;;0.50;;
31438;SDS011;18062;48.872;9.220;2023-04-15T04:05:45;0.77;;;0.77;;
31438;SDS011;18062;48.872;9.220;2023-04-15T04:08:11;0.87;;;0.73;;
31438;SDS011;18062;48.872;9.220;2023-04-15T04:10:40;0.87;;;0.80;;
31438;SDS011;18062;48.872;9.220;2023-04-15T04:13:06;1.07;;;0.97;;
31438;SDS011;18062;48.872;9.220;2023-04-15T04:15:32;2.03;;;0.90;;
31438;SDS011;18062;48.872;9.220;2023-04-15T04:17:58;0.40;;;0.40;;
31438;SDS011;18062;48.872;9.220;2023-04-15T04:20:24;0.50;;;0.50;;
31438;SDS011;18062;48.872;9.220;2023-04-15T04:22:50;0.67;;;0.67;;
31438;SDS011;18062;48.872;9.220;2023-04-15T04:25:16;0.90;;;0.57;;
31438;SDS011;18062;48.872;9.220;2023-04-15T04:27:42;0.50;;;0.50;;
31438;SDS011;18062;48.872;9.220;2023-04-15T04:30:09;0.50;;;0.50;;
31438;SDS011;18062;48.872;9.220;2023-04-15T04:32:35;1.60;;;0.93;;
31438;SDS011;18062;48.872;9.220;2023-04-15T04:35:02;1.40;;;0.93;;
31438;SDS011;18062;48.872;9.220;2023-04-15T04:37:28;0.70;;;0.70;;
31438;SDS011;18062;48.872;9.220;2023-04-15T04:39:55;0.70;;;0.70;;
31438;SDS011;18062;48.872;9.220;2023-04-15T04:42:21;0.60;;;0.60;;
31438;SDS011;18062;48.872;9.220;2023-04-15T04:44:47;0.80;;;0.80;;
31438;SDS011;18062;48.872;9.220;2023-04-15T04:47:13;0.47;;;0.47;;
31438;SDS011;18062;48.872;9.220;2023-04-15T04:49:39;1.07;;;0.97;;
31438;SDS011;18062;48.872;9.220;2023-04-15T04:52:05;0.60;;;0.60;;
31438;SDS011;18062;48.872;9.220;2023-04-15T04:54:31;0.43;;;0.43;;
31438;SDS011;18062;48.872;9.220;2023-04-15T04:56:57;1.20;;;1.10;;
31438;SDS011;18062;48.872;9.220;2023-04-15T04:59:24;1.17;;;0.93;;
31438;SDS011;18062;48.872;9.220;2023-04-15T05:01:50;0.63;;;0.63;;
31438;SDS011;18062;48.872;9.220;2023-04-15T05:04:16;0.83;;;0.73;;
31438;SDS011;18062;48.872;9.220;2023-04-15T05:06:42;1.13;;;1.03;;
31438;SDS011;18062;48.872;9.220;2023-04-15T05:09:08;0.80;;;0.80;;
31438;SDS011;18062;48.872;9.220;2023-04-15T05:11:34;0.83;;;0.63;;
31438;SDS011;18062;48.872;9.220;2023-04-15T05:14:00;0.87;;;0.87;;
31438;SDS011;18062;48.872;9.220;2023-04-15T05:16:26;1.00;;;0.97;;
31438;SDS011;18062;48.872;9.220;2023-04-15T05:18:52;0.50;;;0.50;;
31438;SDS011;18062;48.872;9.220;2023-04-15T05:21:19;0.80;;;0.80;;
31438;SDS011;18062;48.872;9.220;2023-04-15T05:23:44;0.97;;;0.97;;
31438;SDS011;18062;48.872;9.220;2023-04-15T05:26:11;0.40;;;0.40;;
31438;SDS011;18062;48.872;9.220;2023-04-15T05:28:37;0.60;;;0.60;;
31438;SDS011;18062;48.872;9.220;2023-04-15T05:31:03;0.43;;;0.43;;
31438;SDS011;18062;48.872;9.220;2023-04-15T05:33:29;1.10;;;1.00;;
31438;SDS011;18062;48.872;9.220;2023-04-15T05:35:55;0.97;;;0.80;;
31438;SDS011;18062;48.872;9.220;2023-04-15T05:38:21;1.90;;;1.30;;
31438;SDS011;18062;48.872;9.220;2023-04-15T05:40:47;2.40;;;1.73;;
31438;SDS011;18062;48.872;9.220;2023-04-15T05:43:13;0.67;;;0.67;;
31438;SDS011;18062;48.872;9.220;2023-04-15T05:45:39;1.00;;;1.00;;
31438;SDS011;18062;48.872;9.220;2023-04-15T05:48:05;0.57;;;0.57;;
31438;SDS011;18062;48.872;9.220;2023-04-15T05:50:32;1.13;;;0.97;;
31438;SDS011;18062;48.872;9.220;2023-04-15T05:52:58;0.50;;;0.50;;
31438;SDS011;18062;48.872;9.220;2023-04-15T05:55:24;0.60;;;0.60;;
31438;SDS011;18062;48.872;9.220;2023-04-15T05:57:51;0.60;;;0.60;;
31438;SDS011;18062;48.872;9.220;2023-04-15T06:00:17;1.97;;;0.93;;
31438;SDS011;18062;48.872;9.220;2023-04-15T06:02:44;1.90;;;1.70;;
31438;SDS011;18062;48.872;9.220;2023-04-15T06:05:10;2.33;;;1.60;;
31438;SDS011;18062;48.872;9.220;2023-04-15T06:07:36;1.43;;;1.33;;
31438;SDS011;18062;48.872;9.220;2023-04-15T06:10:03;2.27;;;1.63;;
31438;SDS011;18062;48.872;9.220;2023-04-15T06:12:29;1.23;;;1.00;;
31438;SDS011;18062;48.872;9.220;2023-04-15T06:14:56;1.37;;;1.13;;
31438;SDS011;18062;48.872;9.220;2023-04-15T06:17:22;0.90;;;0.90;;
31438;SDS011;18062;48.872;9.220;2023-04-15T06:19:48;1.00;;;0.90;;
31438;SDS011;18062;48.872;9.220;2023-04-15T06:22:19;1.43;;;1.27;;
31438;SDS011;18062;48.872;9.220;2023-04-15T06:24:45;1.37;;;1.10;;
31438;SDS011;18062;48.872;9.220;2023-04-15T06:27:12;1.33;;;1.23;;
31438;SDS011;18062;48.872;9.220;2023-04-15T06:29:38;1.03;;;0.83;;
31438;SDS011;18062;48.872;9.220;2023-04-15T06:32:04;1.90;;;1.60;;
31438;SDS011;18062;48.872;9.220;2023-04-15T06:34:30;1.60;;;1.50;;
31438;SDS011;18062;48.872;9.220;2023-04-15T06:36:56;1.87;;;1.30;;
31438;SDS011;18062;48.872;9.220;2023-04-15T06:39:22;2.77;;;1.10;;
31438;SDS011;18062;48.872;9.220;2023-04-15T06:41:48;1.03;;;1.00;;
31438;SDS011;18062;48.872;9.220;2023-04-15T06:44:14;1.03;;;1.00;;
31438;SDS011;18062;48.872;9.220;2023-04-15T06:46:41;1.97;;;1.40;;
31438;SDS011;18062;48.872;9.220;2023-04-15T06:49:07;2.47;;;1.30;;
31438;SDS011;18062;48.872;9.220;2023-04-15T06:51:33;1.13;;;1.03;;
31438;SDS011;18062;48.872;9.220;2023-04-15T06:54:00;1.97;;;1.83;;
31438;SDS011;18062;48.872;9.220;2023-04-15T06:56:26;1.50;;;1.40;;
31438;SDS011;18062;48.872;9.220;2023-04-15T06:58:52;1.30;;;1.20;;
31438;SDS011;18062;48.872;9.220;2023-04-15T07:01:18;2.07;;;1.33;;
31438;SDS011;18062;48.872;9.220;2023-04-15T07:03:45;1.20;;;0.83;;
31438;SDS011;18062;48.872;9.220;2023-04-15T07:06:11;1.30;;;1.20;;
31438;SDS011;18062;48.872;9.220;2023-04-15T07:08:37;1.47;;;1.37;;
31438;SDS011;18062;48.872;9.220;2023-04-15T07:11:03;1.10;;;1.00;;
31438;SDS011;18062;48.872;9.220;2023-04-15T07:13:29;1.43;;;1.23;;
31438;SDS011;18062;48.872;9.220;2023-04-15T07:15:56;1.10;;;1.00;;
31438;SDS011;18062;48.872;9.220;2023-04-15T07:18:22;1.10;;;1.00;;
31438;SDS011;18062;48.872;9.220;2023-04-15T07:20:48;1.13;;;1.03;;
31438;SDS011;18062;48.872;9.220;2023-04-15T07:23:14;1.67;;;1.30;;
31438;SDS011;18062;48.872;9.220;2023-04-15T07:25:40;2.30;;;1.37;;
31438;SDS011;18062;48.872;9.220;2023-04-15T07:28:06;1.37;;;1.10;;
31438;SDS011;18062;48.872;9.220;2023-04-15T07:30:32;1.13;;;0.87;;
31438;SDS011;18062;48.872;9.220;2023-04-15T07:32:58;1.40;;;1.27;;
31438;SDS011;18062;48.872;9.220;2023-04-15T07:35:25;1.73;;;1.10;;
31438;SDS011;18062;48.872;9.220;2023-04-15T07:37:51;1.50;;;1.40;;
31438;SDS011;18062;48.872;9.220;2023-04-15T07:40:17;1.47;;;1.30;;
31438;SDS011;18062;48.872;9.220;2023-04-15T07:42:43;1.63;;;1.13;;
31438;SDS011;18062;48.872;9.220;2023-04-15T07:45:10;2.07;;;1.60;;
31438;SDS011;18062;48.872;9.220;2023-04-15T07:47:36;1.47;;;1.30;;
31438;SDS011;18062;48.872;9.220;2023-04-15T07:50:02;1.47;;;1.37;;
31438;SDS011;18062;48.872;9.220;2023-04-15T07:52:29;1.60;;;1.47;;
31438;SDS011;18062;48.872;9.220;2023-04-15T07:54:55;1.30;;;1.07;;
31438;SDS011;18062;48.872;9.220;2023-04-15T07:57:21;1.50;;;1.20;;
31438;SDS011;18062;48.872;9.220;2023-04-15T07:59:47;1.83;;;1.47;;
31438;SDS011;18062;48.872;9.220;2023-04-15T08:02:13;2.27;;;1.30;;
31438;SDS011;18062;48.872;9.220;2023-04-15T08:04:39;1.07;;;0.97;;
31438;SDS011;18062;48.872;9.220;2023-04-15T08:07:05;3.07;;;1.60;;
31438;SDS011;18062;48.872;9.220;2023-04-15T08:09:31;2.17;;;1.50;;
31438;SDS011;18062;48.872;9.220;2023-04-15T08:11:57;2.23;;;1.60;;
31438;SDS011;18062;48.872;9.220;2023-04-15T08:14:23;1.67;;;1.40;;
31438;SDS011;18062;48.872;9.220;2023-04-15T08:16:49;2.60;;;1.37;;
31438;SDS011;18062;48.872;9.220;2023-04-15T08:19:15;3.00;;;1.50;;
31438;SDS011;18062;48.872;9.220;2023-04-15T08:21:41;1.80;;;1.53;;
31438;SDS011;18062;48.872;9.220;2023-04-15T08:24:07;1.93;;;1.43;;
31438;SDS011;18062;48.872;9.220;2023-04-15T08:26:33;1.40;;;1.30;;
31438;SDS011;18062;48.872;9.220;2023-04-15T08:28:59;1.70;;;1.60;;
31438;SDS011;18062;48.872;9.220;2023-04-15T08:31:26;2.33;;;1.60;;
31438;SDS011;18062;48.872;9.220;2023-04-15T08:33:55;2.50;;;1.33;;
31438;SDS011;18062;48.872;9.220;2023-04-15T08:36:21;2.67;;;1.67;;
31438;SDS011;18062;48.872;9.220;2023-04-15T08:38:47;3.20;;;1.67;;
31438;SDS011;18062;48.872;9.220;2023-04-15T08:43:45;1.70;;;1.60;;
31438;SDS011;18062;48.872;9.220;2023-04-15T08:46:12;1.90;;;1.47;;
31438;SDS011;18062;48.872;9.220;2023-04-15T08:48:38;2.43;;;1.60;;
31438;SDS011;18062;48.872;9.220;2023-04-15T08:51:05;3.17;;;1.40;;
31438;SDS011;18062;48.872;9.220;2023-04-15T08:53:32;1.50;;;1.40;;
31438;SDS011;18062;48.872;9.220;2023-04-15T08:55:58;1.70;;;1.60;;
31438;SDS011;18062;48.872;9.220;2023-04-15T08:58:27;1.57;;;1.30;;
31438;SDS011;18062;48.872;9.220;2023-04-15T09:00:53;1.30;;;1.20;;
31438;SDS011;18062;48.872;9.220;2023-04-15T09:03:19;1.33;;;1.10;;
31438;SDS011;18062;48.872;9.220;2023-04-15T09:05:47;1.55;;;1.30;;
31438;SDS011;18062;48.872;9.220;2023-04-15T09:08:15;2.85;;;1.60;;
31438;SDS011;18062;48.872;9.220;2023-04-15T09:10:41;1.38;;;1.27;;
31438;SDS011;18062;48.872;9.220;2023-04-15T09:13:07;2.25;;;1.48;;
31438;SDS011;18062;48.872;9.220;2023-04-15T09:15:33;1.63;;;1.40;;
31438;SDS011;18062;48.872;9.220;2023-04-15T09:18:03;1.50;;;1.40;;
31438;SDS011;18062;48.872;9.220;2023-04-15T09:20:29;1.93;;;1.50;;
31438;SDS011;18062;48.872;9.220;2023-04-15T09:22:55;2.30;;;1.40;;
31438;SDS011;18062;48.872;9.220;2023-04-15T09:27:47;1.53;;;1.37;;
31438;SDS011;18062;48.872;9.220;2023-04-15T09:30:13;1.70;;;1.50;;
31438;SDS011;18062;48.872;9.220;2023-04-15T09:32:48;1.20;;;1.10;;
31438;SDS011;18062;48.872;9.220;2023-04-15T09:35:14;2.67;;;1.20;;
31438;SDS011;18062;48.872;9.220;2023-04-15T09:37:40;2.40;;;1.47;;
31438;SDS011;18062;48.872;9.220;2023-04-15T09:40:06;1.43;;;1.30;;
31438;SDS011;18062;48.872;9.220;2023-04-15T09:42:33;1.20;;;1.10;;
31438;SDS011;18062;48.872;9.220;2023-04-15T09:45:11;1.87;;;1.37;;
31438;SDS011;18062;48.872;9.220;2023-04-15T09:47:37;1.73;;;1.40;;
31438;SDS011;18062;48.872;9.220;2023-04-15T09:50:04;2.47;;;1.40;;
31438;SDS011;18062;48.872;9.220;2023-04-15T09:52:30;1.30;;;1.20;;
31438;SDS011;18062;48.872;9.220;2023-04-15T09:54:57;1.30;;;1.20;;
31438;SDS011;18062;48.872;9.220;2023-04-15T09:57:23;2.07;;;1.60;;
31438;SDS011;18062;48.872;9.220;2023-04-15T09:59:49;1.30;;;1.20;;
31438;SDS011;18062;48.872;9.220;2023-04-15T10:02:16;1.90;;;1.40;;
31438;SDS011;18062;48.872;9.220;2023-04-15T10:04:43;1.47;;;1.30;;
31438;SDS011;18062;48.872;9.220;2023-04-15T10:07:13;1.00;;;1.00;;
31438;SDS011;18062;48.872;9.220;2023-04-15T10:09:39;1.20;;;1.10;;
31438;SDS011;18062;48.872;9.220;2023-04-15T10:12:05;1.50;;;1.30;;
31438;SDS011;18062;48.872;9.220;2023-04-15T10:14:33;2.42;;;1.45;;
31438;SDS011;18062;48.872;9.220;2023-04-15T10:17:03;1.58;;;1.17;;
31438;SDS011;18062;48.872;9.220;2023-04-15T10:19:32;1.10;;;1.00;;
31438;SDS011;18062;48.872;9.220;2023-04-15T10:21:58;1.35;;;1.25;;
31438;SDS011;18062;48.872;9.220;2023-04-15T10:24:25;1.70;;;1.60;;
31438;SDS011;18062;48.872;9.220;2023-04-15T10:26:51;1.02;;;0.98;;
31438;SDS011;18062;48.872;9.220;2023-04-15T10:29:18;1.00;;;1.00;;
31438;SDS011;18062;48.872;9.220;2023-04-15T10:31:44;1.42;;;1.30;;
31438;SDS011;18062;48.872;9.220;2023-04-15T10:34:11;1.17;;;1.08;;
31438;SDS011;18062;48.872;9.220;2023-04-15T10:36:37;1.98;;;1.10;;
31438;SDS011;18062;48.872;9.220;2023-04-15T10:39:21;1.00;;;0.98;;
31438;SDS011;18062;48.872;9.220;2023-04-15T10:42:05;0.88;;;0.88;;
31438;SDS011;18062;48.872;9.220;2023-04-15T10:44:31;0.98;;;0.98;;
31438;SDS011;18062;48.872;9.220;2023-04-15T10:46:57;2.17;;;1.20;;
31438;SDS011;18062;48.872;9.220;2023-04-15T10:49:24;1.38;;;1.20;;
31438;SDS011;18062;48.872;9.220;2023-04-15T10:51:51;1.15;;;1.00;;
31438;SDS011;18062;48.872;9.220;2023-04-15T10:56:50;2.28;;;1.30;;
31438;SDS011;18062;48.872;9.220;2023-04-15T10:59:16;1.60;;;1.13;;
31438;SDS011;18062;48.872;9.220;2023-04-15T11:01:48;2.20;;;1.38;;
31438;SDS011;18062;48.872;9.220;2023-04-15T11:04:44;1.85;;;1.48;;
31438;SDS011;18062;48.872;9.220;2023-04-15T11:07:05;1.35;;;1.25;;
31438;SDS011;18062;48.872;9.220;2023-04-15T11:09:31;1.58;;;1.48;;
31438;SDS011;18062;48.872;9.220;2023-04-15T11:12:04;2.65;;;1.40;;
31438;SDS011;18062;48.872;9.220;2023-04-15T11:14:36;1.40;;;1.30;;
31438;SDS011;18062;48.872;9.220;2023-04-15T11:17:04;2.17;;;1.65;;
31438;SDS011;18062;48.872;9.220;2023-04-15T11:19:36;1.50;;;1.40;;
31438;SDS011;18062;48.872;9.220;2023-04-15T11:22:09;1.73;;;1.40;;
31438;SDS011;18062;48.872;9.220;2023-04-15T11:24:35;1.50;;;1.40;;
31438;SDS011;18062;48.872;9.220;2023-04-15T11:27:01;1.70;;;1.60;;
31438;SDS011;18062;48.872;9.220;2023-04-15T11:29:30;2.55;;;1.67;;
31438;SDS011;18062;48.872;9.220;2023-04-15T11:32:08;1.60;;;1.50;;
31438;SDS011;18062;48.872;9.220;2023-04-15T11:34:36;1.40;;;1.30;;
31438;SDS011;18062;48.872;9.220;2023-04-15T11:37:03;1.33;;;1.23;;
31438;SDS011;18062;48.872;9.220;2023-04-15T11:39:30;1.40;;;1.30;;
31438;SDS011;18062;48.872;9.220;2023-04-15T11:41:56;2.20;;;1.33;;
31438;SDS011;18062;48.872;9.220;2023-04-15T11:44:22;1.87;;;1.63;;
31438;SDS011;18062;48.872;9.220;2023-04-15T11:46:48;1.33;;;1.23;;
31438;SDS011;18062;48.872;9.220;2023-04-15T11:49:30;1.43;;;1.23;;
31438;SDS011;18062;48.872;9.220;2023-04-15T11:51:58;1.40;;;1.30;;
31438;SDS011;18062;48.872;9.220;2023-04-15T11:54:24;1.13;;;1.07;;
31438;SDS011;18062;48.872;9.220;2023-04-15T11:56:50;1.10;;;1.07;;
31438;SDS011;18062;48.872;9.220;2023-04-15T11:59:18;1.17;;;1.03;;
31438;SDS011;18062;48.872;9.220;2023-04-15T12:01:44;1.00;;;0.90;;
31438;SDS011;18062;48.872;9.220;2023-04-15T12:04:12;0.93;;;0.93;;
31438;SDS011;18062;48.872;9.220;2023-04-15T12:06:38;1.47;;;1.10;;
31438;SDS011;18062;48.872;9.220;2023-04-15T12:11:32;1.37;;;1.10;;
31438;SDS011;18062;48.872;9.220;2023-04-15T12:14:01;1.17;;;1.07;;
31438;SDS011;18062;48.872;9.220;2023-04-15T12:16:28;2.07;;;1.20;;
31438;SDS011;18062;48.872;9.220;2023-04-15T12:18:55;1.13;;;0.97;;
31438;SDS011;18062;48.872;9.220;2023-04-15T12:21:22;1.43;;;1.33;;
31438;SDS011;18062;48.872;9.220;2023-04-15T12:23:52;1.30;;;1.20;;
31438;SDS011;18062;48.872;9.220;2023-04-15T12:26:24;1.20;;;1.10;;
31438;SDS011;18062;48.872;9.220;2023-04-15T12:29:10;1.20;;;1.10;;
31438;SDS011;18062;48.872;9.220;2023-04-15T12:31:36;1.03;;;0.93;;
31438;SDS011;18062;48.872;9.220;2023-04-15T12:34:11;0.80;;;0.80;;
31438;SDS011;18062;48.872;9.220;2023-04-15T12:36:38;1.37;;;1.03;;
31438;SDS011;18062;48.872;9.220;2023-04-15T12:39:04;1.00;;;0.90;;
31438;SDS011;18062;48.872;9.220;2023-04-15T12:41:30;0.73;;;0.73;;
31438;SDS011;18062;48.872;9.220;2023-04-15T12:43:57;0.60;;;0.60;;
31438;SDS011;18062;48.872;9.220;2023-04-15T12:46:23;0.70;;;0.70;;
31438;SDS011;18062;48.872;9.220;2023-04-15T12:48:49;0.80;;;0.80;;
31438;SDS011;18062;48.872;9.220;2023-04-15T12:51:18;0.80;;;0.80;;
31438;SDS011;18062;48.872;9.220;2023-04-15T12:53:47;0.50;;;0.50;;
31438;SDS011;18062;48.872;9.220;2023-04-15T12:56:14;0.83;;;0.83;;
31438;SDS011;18062;48.872;9.220;2023-04-15T12:58:43;0.87;;;0.80;;
31438;SDS011;18062;48.872;9.220;2023-04-15T13:01:10;0.77;;;0.70;;
31438;SDS011;18062;48.872;9.220;2023-04-15T13:03:36;0.60;;;0.60;;
31438;SDS011;18062;48.872;9.220;2023-04-15T13:06:02;0.90;;;0.73;;
31438;SDS011;18062;48.872;9.220;2023-04-15T13:08:29;0.80;;;0.80;;
31438;SDS011;18062;48.872;9.220;2023-04-15T13:10:55;0.83;;;0.83;;
31438;SDS011;18062;48.872;9.220;2023-04-15T13:13:21;1.00;;;0.83;;
31438;SDS011;18062;48.872;9.220;2023-04-15T13:15:47;1.43;;;1.03;;
31438;SDS011;18062;48.872;9.220;2023-04-15T13:18:13;1.07;;;0.97;;
31438;SDS011;18062;48.872;9.220;2023-04-15T13:20:39;0.77;;;0.73;;
31438;SDS011;18062;48.872;9.220;2023-04-15T13:23:06;1.00;;;0.70;;
31438;SDS011;18062;48.872;9.220;2023-04-15T13:25:32;0.60;;;0.60;;
31438;SDS011;18062;48.872;9.220;2023-04-15T13:27:58;0.60;;;0.60;;
31438;SDS011;18062;48.872;9.220;2023-04-15T13:30:25;0.60;;;0.60;;
31438;SDS011;18062;48.872;9.220;2023-04-15T13:32:51;0.50;;;0.50;;
31438;SDS011;18062;48.872;9.220;2023-04-15T13:35:18;0.50;;;0.50;;
31438;SDS011;18062;48.872;9.220;2023-04-15T13:37:44;0.53;;;0.53;;
31438;SDS011;18062;48.872;9.220;2023-04-15T13:40:10;0.40;;;0.40;;
31438;SDS011;18062;48.872;9.220;2023-04-15T13:42:36;0.50;;;0.50;;
31438;SDS011;18062;48.872;9.220;2023-04-15T13:45:02;0.40;;;0.40;;
31438;SDS011;18062;48.872;9.220;2023-04-15T13:47:29;0.53;;;0.50;;
31438;SDS011;18062;48.872;9.220;2023-04-15T13:49:55;0.50;;;0.50;;
31438;SDS011;18062;48.872;9.220;2023-04-15T13:52:21;0.80;;;0.50;;
31438;SDS011;18062;48.872;9.220;2023-04-15T13:54:48;0.40;;;0.40;;
31438;SDS011;18062;48.872;9.220;2023-04-15T13:57:14;0.40;;;0.40;;
31438;SDS011;18062;48.872;9.220;2023-04-15T13:59:40;0.50;;;0.50;;
31438;SDS011;18062;48.872;9.220;2023-04-15T14:02:06;0.40;;;0.40;;
31438;SDS011;18062;48.872;9.220;2023-04-15T14:04:32;0.40;;;0.40;;
31438;SDS011;18062;48.872;9.220;2023-04-15T14:06:58;1.90;;;0.60;;
31438;SDS011;18062;48.872;9.220;2023-04-15T14:09:24;0.40;;;0.40;;
31438;SDS011;18062;48.872;9.220;2023-04-15T14:11:50;0.40;;;0.40;;
31438;SDS011;18062;48.872;9.220;2023-04-15T14:14:16;0.60;;;0.60;;
31438;SDS011;18062;48.872;9.220;2023-04-15T14:16:43;0.77;;;0.60;;
31438;SDS011;18062;48.872;9.220;2023-04-15T14:19:09;0.50;;;0.50;;
31438;SDS011;18062;48.872;9.220;2023-04-15T14:21:35;2.70;;;1.40;;
31438;SDS011;18062;48.872;9.220;2023-04-15T14:24:01;0.77;;;0.60;;
31438;SDS011;18062;48.872;9.220;2023-04-15T14:26:27;0.60;;;0.60;;
31438;SDS011;18062;48.872;9.220;2023-04-15T14:28:53;0.40;;;0.40;;
31438;SDS011;18062;48.872;9.220;2023-04-15T14:31:19;1.20;;;0.80;;
31438;SDS011;18062;48.872;9.220;2023-04-15T14:33:45;0.60;;;0.60;;
31438;SDS011;18062;48.872;9.220;2023-04-15T14:36:11;0.40;;;0.40;;
31438;SDS011;18062;48.872;9.220;2023-04-15T14:38:37;0.60;;;0.50;;
31438;SDS011;18062;48.872;9.220;2023-04-15T14:41:06;0.50;;;0.50;;
31438;SDS011;18062;48.872;9.220;2023-04-15T14:43:33;0.60;;;0.60;;
31438;SDS011;18062;48.872;9.220;2023-04-15T14:45:59;0.67;;;0.60;;
31438;SDS011;18062;48.872;9.220;2023-04-15T14:48:25;0.30;;;0.30;;
31438;SDS011;18062;48.872;9.220;2023-04-15T14:50:51;0.50;;;0.50;;
31438;SDS011;18062;48.872;9.220;2023-04-15T14:53:17;1.67;;;0.50;;
31438;SDS011;18062;48.872;9.220;2023-04-15T14:55:43;0.40;;;0.40;;